sensor_id;sensor_type;location;lat;lon;timestamp;pressure;altitude;pressure_sealevel;temperature;humidity
26531;BME280;14201;43.188;24.160;2022-07-29T00:00:01;99590.03;;;25.74;68.96
26531;BME280;14201;43.188;24.160;2022-07-29T00:02:27;99594.97;;;25.50;70.73
26531;BME280;14201;43.188;24.160;2022-07-29T00:04:53;99596.59;;;25.58;71.55
26531;BME280;14201;43.188;24.160;2022-07-29T00:07:19;99586.97;;;25.49;71.69
26531;BME280;14201;43.188;24.160;2022-07-29T00:09:45;99589.03;;;25.34;71.93
26531;BME280;14201;43.188;24.160;2022-07-29T00:12:10;99594.53;;;25.27;72.17
26531;BME280;14201;43.188;24.160;2022-07-29T00:14:36;99601.06;;;25.07;72.98
26531;BME280;14201;43.188;24.160;2022-07-29T00:17:02;99602.91;;;25.04;72.10
26531;BME280;14201;43.188;24.160;2022-07-29T00:19:27;99606.59;;;24.95;73.15
26531;BME280;14201;43.188;24.160;2022-07-29T00:21:53;99606.66;;;24.92;73.47
26531;BME280;14201;43.188;24.160;2022-07-29T00:24:18;99604.22;;;24.78;73.91
26531;BME280;14201;43.188;24.160;2022-07-29T00:26:44;99603.25;;;24.82;73.60
26531;BME280;14201;43.188;24.160;2022-07-29T00:29:10;99613.72;;;24.93;72.67
26531;BME280;14201;43.188;24.160;2022-07-29T00:31:35;99604.22;;;24.78;73.06
26531;BME280;14201;43.188;24.160;2022-07-29T00:34:01;99608.56;;;24.84;73.08
26531;BME280;14201;43.188;24.160;2022-07-29T00:36:27;99601.81;;;24.61;73.21
26531;BME280;14201;43.188;24.160;2022-07-29T00:38:53;99610.88;;;24.48;73.81
26531;BME280;14201;43.188;24.160;2022-07-29T00:41:19;99604.91;;;24.30;75.06
26531;BME280;14201;43.188;24.160;2022-07-29T00:43:45;99620.84;;;24.35;74.30
26531;BME280;14201;43.188;24.160;2022-07-29T00:46:11;99597.13;;;24.15;75.40
26531;BME280;14201;43.188;24.160;2022-07-29T00:48:37;99612.91;;;24.30;75.26
26531;BME280;14201;43.188;24.160;2022-07-29T00:51:05;99602.13;;;24.40;74.96
26531;BME280;14201;43.188;24.160;2022-07-29T00:53:33;99608.19;;;24.52;74.10
26531;BME280;14201;43.188;24.160;2022-07-29T00:56:00;99615.19;;;24.58;73.77
26531;BME280;14201;43.188;24.160;2022-07-29T00:58:26;99614.25;;;24.62;73.65
26531;BME280;14201;43.188;24.160;2022-07-29T01:00:52;99605.06;;;24.20;74.64
26531;BME280;14201;43.188;24.160;2022-07-29T01:03:18;99605.19;;;24.10;75.47
26531;BME280;14201;43.188;24.160;2022-07-29T01:05:45;99613.81;;;24.28;74.80
26531;BME280;14201;43.188;24.160;2022-07-29T01:08:14;99610.13;;;24.38;73.98
26531;BME280;14201;43.188;24.160;2022-07-29T01:10:41;99614.38;;;24.50;72.89
26531;BME280;14201;43.188;24.160;2022-07-29T01:13:08;99615.53;;;24.32;72.95
26531;BME280;14201;43.188;24.160;2022-07-29T01:15:42;99617.69;;;24.05;73.87
26531;BME280;14201;43.188;24.160;2022-07-29T01:18:20;99623.09;;;23.99;75.13
26531;BME280;14201;43.188;24.160;2022-07-29T01:31:31;99633.72;;;24.01;74.42
26531;BME280;14201;43.188;24.160;2022-07-29T01:34:03;99634.41;;;24.15;73.44
26531;BME280;14201;43.188;24.160;2022-07-29T01:36:45;99628.09;;;24.22;72.69
26531;BME280;14201;43.188;24.160;2022-07-29T01:39:23;99630.78;;;24.21;72.96
26531;BME280;14201;43.188;24.160;2022-07-29T01:42:12;99634.50;;;24.06;73.48
26531;BME280;14201;43.188;24.160;2022-07-29T01:47:20;99622.41;;;23.82;73.78
26531;BME280;14201;43.188;24.160;2022-07-29T01:49:50;99632.22;;;23.75;74.62
26531;BME280;14201;43.188;24.160;2022-07-29T01:52:26;99622.22;;;23.15;76.31
26531;BME280;14201;43.188;24.160;2022-07-29T01:54:55;99621.63;;;22.74;79.87
26531;BME280;14201;43.188;24.160;2022-07-29T01:57:27;99621.47;;;22.93;78.20
26531;BME280;14201;43.188;24.160;2022-07-29T01:59:56;99626.53;;;23.25;76.81
26531;BME280;14201;43.188;24.160;2022-07-29T02:02:23;99627.38;;;23.30;76.95
26531;BME280;14201;43.188;24.160;2022-07-29T02:04:50;99626.41;;;23.36;75.78
26531;BME280;14201;43.188;24.160;2022-07-29T02:07:19;99627.38;;;23.29;76.07
26531;BME280;14201;43.188;24.160;2022-07-29T02:09:47;99625.53;;;23.37;75.89
26531;BME280;14201;43.188;24.160;2022-07-29T02:12:14;99635.31;;;23.32;76.70
26531;BME280;14201;43.188;24.160;2022-07-29T02:14:45;99629.84;;;23.47;75.93
26531;BME280;14201;43.188;24.160;2022-07-29T02:17:13;99641.16;;;23.68;75.00
26531;BME280;14201;43.188;24.160;2022-07-29T02:19:43;99642.03;;;23.67;75.84
26531;BME280;14201;43.188;24.160;2022-07-29T02:22:11;99622.63;;;23.62;75.71
26531;BME280;14201;43.188;24.160;2022-07-29T02:24:38;99635.00;;;23.64;74.48
26531;BME280;14201;43.188;24.160;2022-07-29T02:27:07;99640.31;;;23.61;75.25
26531;BME280;14201;43.188;24.160;2022-07-29T02:29:34;99640.19;;;23.78;74.54
26531;BME280;14201;43.188;24.160;2022-07-29T02:32:02;99637.56;;;23.73;74.13
26531;BME280;14201;43.188;24.160;2022-07-29T02:34:29;99638.44;;;23.71;74.74
26531;BME280;14201;43.188;24.160;2022-07-29T02:36:55;99641.16;;;23.66;75.29
26531;BME280;14201;43.188;24.160;2022-07-29T02:39:21;99644.78;;;23.61;76.12
26531;BME280;14201;43.188;24.160;2022-07-29T02:41:50;99642.97;;;23.63;76.68
26531;BME280;14201;43.188;24.160;2022-07-29T02:44:19;99649.66;;;23.15;74.04
26531;BME280;14201;43.188;24.160;2022-07-29T02:52:00;99629.50;;;22.87;78.61
26531;BME280;14201;43.188;24.160;2022-07-29T02:54:37;99632.16;;;22.84;77.69
26531;BME280;14201;43.188;24.160;2022-07-29T02:57:10;99633.19;;;22.70;78.26
26531;BME280;14201;43.188;24.160;2022-07-29T02:59:41;99626.88;;;22.80;78.99
26531;BME280;14201;43.188;24.160;2022-07-29T03:02:09;99623.44;;;22.68;79.67
26531;BME280;14201;43.188;24.160;2022-07-29T03:04:38;99627.91;;;22.63;80.03
26531;BME280;14201;43.188;24.160;2022-07-29T03:07:05;99625.25;;;22.63;80.67
26531;BME280;14201;43.188;24.160;2022-07-29T03:09:31;99620.75;;;22.71;80.52
26531;BME280;14201;43.188;24.160;2022-07-29T03:11:57;99617.25;;;22.67;80.53
26531;BME280;14201;43.188;24.160;2022-07-29T03:14:23;99630.69;;;22.46;81.24
26531;BME280;14201;43.188;24.160;2022-07-29T03:16:50;99628.13;;;22.24;82.55
26531;BME280;14201;43.188;24.160;2022-07-29T03:19:17;99634.28;;;22.34;82.63
26531;BME280;14201;43.188;24.160;2022-07-29T03:21:43;99630.78;;;22.24;83.18
26531;BME280;14201;43.188;24.160;2022-07-29T03:24:08;99640.41;;;22.44;82.14
26531;BME280;14201;43.188;24.160;2022-07-29T03:26:34;99643.03;;;22.53;81.53
26531;BME280;14201;43.188;24.160;2022-07-29T03:28:59;99641.28;;;22.47;81.71
26531;BME280;14201;43.188;24.160;2022-07-29T03:31:25;99620.97;;;22.43;81.56
26531;BME280;14201;43.188;24.160;2022-07-29T03:33:51;99647.44;;;22.55;80.92
26531;BME280;14201;43.188;24.160;2022-07-29T03:36:16;99627.09;;;22.51;80.90
26531;BME280;14201;43.188;24.160;2022-07-29T03:38:43;99649.88;;;22.81;79.88
26531;BME280;14201;43.188;24.160;2022-07-29T03:41:11;99648.94;;;22.89;80.00
26531;BME280;14201;43.188;24.160;2022-07-29T03:43:40;99636.53;;;22.94;79.67
26531;BME280;14201;43.188;24.160;2022-07-29T03:46:07;99634.69;;;23.00;78.93
26531;BME280;14201;43.188;24.160;2022-07-29T03:48:36;99642.56;;;23.14;78.59
26531;BME280;14201;43.188;24.160;2022-07-29T03:51:05;99642.56;;;23.16;78.44
26531;BME280;14201;43.188;24.160;2022-07-29T03:53:32;99645.22;;;23.16;78.44
26531;BME280;14201;43.188;24.160;2022-07-29T03:55:59;99647.78;;;23.25;78.25
26531;BME280;14201;43.188;24.160;2022-07-29T03:58:27;99650.59;;;23.07;78.94
26531;BME280;14201;43.188;24.160;2022-07-29T04:00:54;99639.03;;;23.12;78.88
26531;BME280;14201;43.188;24.160;2022-07-29T04:03:21;99641.72;;;23.11;79.20
26531;BME280;14201;43.188;24.160;2022-07-29T04:06:06;99635.38;;;23.24;78.99
26531;BME280;14201;43.188;24.160;2022-07-29T04:08:33;99629.19;;;23.27;77.71
26531;BME280;14201;43.188;24.160;2022-07-29T04:10:59;99627.38;;;23.29;78.06
26531;BME280;14201;43.188;24.160;2022-07-29T04:13:25;99637.22;;;23.17;78.50
26531;BME280;14201;43.188;24.160;2022-07-29T04:15:51;99632.84;;;23.13;78.97
26531;BME280;14201;43.188;24.160;2022-07-29T04:18:16;99633.78;;;23.09;79.91
26531;BME280;14201;43.188;24.160;2022-07-29T04:20:42;99638.97;;;23.18;79.98
26531;BME280;14201;43.188;24.160;2022-07-29T04:23:08;99637.31;;;23.11;80.45
26531;BME280;14201;43.188;24.160;2022-07-29T04:25:37;99632.91;;;23.01;80.55
26531;BME280;14201;43.188;24.160;2022-07-29T04:28:03;99642.66;;;22.99;80.93
26531;BME280;14201;43.188;24.160;2022-07-29T04:30:29;99618.81;;;22.93;80.37
26531;BME280;14201;43.188;24.160;2022-07-29T04:32:55;99627.44;;;23.23;80.22
26531;BME280;14201;43.188;24.160;2022-07-29T04:35:21;99650.16;;;23.54;79.19
26531;BME280;14201;43.188;24.160;2022-07-29T04:37:47;99649.28;;;23.54;79.75
26531;BME280;14201;43.188;24.160;2022-07-29T04:40:12;99641.31;;;23.55;79.82
26531;BME280;14201;43.188;24.160;2022-07-29T04:42:39;99646.56;;;23.58;78.76
26531;BME280;14201;43.188;24.160;2022-07-29T04:45:05;99642.88;;;23.75;77.68
26531;BME280;14201;43.188;24.160;2022-07-29T04:47:31;99649.72;;;23.96;76.67
26531;BME280;14201;43.188;24.160;2022-07-29T04:49:56;99655.97;;;23.93;77.74
26531;BME280;14201;43.188;24.160;2022-07-29T04:52:22;99655.66;;;24.18;77.47
26531;BME280;14201;43.188;24.160;2022-07-29T04:54:47;99659.13;;;24.23;74.92
26531;BME280;14201;43.188;24.160;2022-07-29T04:57:13;99664.44;;;24.26;76.24
26531;BME280;14201;43.188;24.160;2022-07-29T04:59:38;99670.59;;;24.30;75.26
26531;BME280;14201;43.188;24.160;2022-07-29T05:02:04;99671.28;;;24.43;75.12
26531;BME280;14201;43.188;24.160;2022-07-29T05:04:29;99671.44;;;24.33;76.15
26531;BME280;14201;43.188;24.160;2022-07-29T05:06:55;99665.88;;;24.52;77.25
26531;BME280;14201;43.188;24.160;2022-07-29T05:09:20;99667.66;;;24.53;76.87
26531;BME280;14201;43.188;24.160;2022-07-29T05:11:45;99665.00;;;24.51;77.16
26531;BME280;14201;43.188;24.160;2022-07-29T05:14:11;99672.13;;;24.51;77.78
26531;BME280;14201;43.188;24.160;2022-07-29T05:16:37;99672.91;;;24.56;78.01
26531;BME280;14201;43.188;24.160;2022-07-29T05:19:04;99679.16;;;24.55;78.32
26531;BME280;14201;43.188;24.160;2022-07-29T05:21:30;99685.28;;;24.60;78.41
26531;BME280;14201;43.188;24.160;2022-07-29T05:23:55;99685.22;;;24.66;78.07
26531;BME280;14201;43.188;24.160;2022-07-29T05:26:21;99683.44;;;24.65;77.92
26531;BME280;14201;43.188;24.160;2022-07-29T05:28:46;99685.97;;;24.76;77.32
26531;BME280;14201;43.188;24.160;2022-07-29T05:31:12;99693.88;;;24.81;77.13
26531;BME280;14201;43.188;24.160;2022-07-29T05:33:40;99691.13;;;24.87;76.48
26531;BME280;14201;43.188;24.160;2022-07-29T05:36:06;99690.25;;;24.85;76.61
26531;BME280;14201;43.188;24.160;2022-07-29T05:38:33;99688.44;;;24.87;75.79
26531;BME280;14201;43.188;24.160;2022-07-29T05:40:59;99685.78;;;24.85;75.75
26531;BME280;14201;43.188;24.160;2022-07-29T05:43:26;99690.22;;;24.88;75.80
26531;BME280;14201;43.188;24.160;2022-07-29T05:45:52;99698.22;;;24.88;75.63
26531;BME280;14201;43.188;24.160;2022-07-29T05:48:18;99698.63;;;25.18;75.54
26531;BME280;14201;43.188;24.160;2022-07-29T05:50:43;99697.72;;;25.19;74.56
26531;BME280;14201;43.188;24.160;2022-07-29T05:53:09;99698.53;;;25.25;74.01
26531;BME280;14201;43.188;24.160;2022-07-29T05:55:35;99703.09;;;25.15;75.51
26531;BME280;14201;43.188;24.160;2022-07-29T05:58:00;99705.56;;;25.29;75.28
26531;BME280;14201;43.188;24.160;2022-07-29T06:00:26;99703.59;;;25.42;73.38
26531;BME280;14201;43.188;24.160;2022-07-29T06:02:52;99703.63;;;25.39;73.99
26531;BME280;14201;43.188;24.160;2022-07-29T06:05:17;99696.44;;;25.44;73.73
26531;BME280;14201;43.188;24.160;2022-07-29T06:07:43;99699.97;;;25.45;73.18
26531;BME280;14201;43.188;24.160;2022-07-29T06:10:08;99704.31;;;25.50;73.76
26531;BME280;14201;43.188;24.160;2022-07-29T06:12:34;99706.03;;;25.54;72.78
26531;BME280;14201;43.188;24.160;2022-07-29T06:15:00;99707.53;;;25.71;72.10
26531;BME280;14201;43.188;24.160;2022-07-29T06:17:26;99713.59;;;25.79;71.41
26531;BME280;14201;43.188;24.160;2022-07-29T06:19:51;99707.59;;;25.65;72.47
26531;BME280;14201;43.188;24.160;2022-07-29T06:22:17;99711.81;;;25.78;72.99
26531;BME280;14201;43.188;24.160;2022-07-29T06:24:43;99710.00;;;25.80;72.41
26531;BME280;14201;43.188;24.160;2022-07-29T06:27:12;99700.56;;;25.62;74.73
26531;BME280;14201;43.188;24.160;2022-07-29T06:29:38;99715.53;;;25.71;73.10
26531;BME280;14201;43.188;24.160;2022-07-29T06:32:04;99710.06;;;25.77;74.24
26531;BME280;14201;43.188;24.160;2022-07-29T06:34:29;99719.31;;;25.58;74.04
26531;BME280;14201;43.188;24.160;2022-07-29T06:36:55;99711.16;;;25.67;73.85
26531;BME280;14201;43.188;24.160;2022-07-29T06:39:21;99717.09;;;25.83;74.17
26531;BME280;14201;43.188;24.160;2022-07-29T06:41:47;99717.53;;;26.06;73.86
26531;BME280;14201;43.188;24.160;2022-07-29T06:44:17;99715.69;;;26.10;70.11
26531;BME280;14201;43.188;24.160;2022-07-29T06:46:43;99717.38;;;26.14;70.07
26531;BME280;14201;43.188;24.160;2022-07-29T06:49:09;99710.72;;;26.35;70.23
26531;BME280;14201;43.188;24.160;2022-07-29T06:51:35;99711.56;;;26.37;69.56
26531;BME280;14201;43.188;24.160;2022-07-29T06:54:01;99703.94;;;26.62;68.75
26531;BME280;14201;43.188;24.160;2022-07-29T06:56:29;99703.63;;;26.76;68.22
26531;BME280;14201;43.188;24.160;2022-07-29T06:58:56;99708.34;;;27.02;65.36
26531;BME280;14201;43.188;24.160;2022-07-29T07:01:21;99707.97;;;27.18;65.46
26531;BME280;14201;43.188;24.160;2022-07-29T07:03:47;99706.47;;;27.43;63.67
26531;BME280;14201;43.188;24.160;2022-07-29T07:06:13;99698.88;;;27.61;63.82
26531;BME280;14201;43.188;24.160;2022-07-29T07:08:38;99703.41;;;27.92;65.19
26531;BME280;14201;43.188;24.160;2022-07-29T07:11:04;99692.31;;;28.37;61.82
26531;BME280;14201;43.188;24.160;2022-07-29T07:13:31;99694.31;;;28.60;60.82
26531;BME280;14201;43.188;24.160;2022-07-29T07:16:00;99696.66;;;28.71;58.87
26531;BME280;14201;43.188;24.160;2022-07-29T07:18:25;99700.31;;;28.68;60.12
26531;BME280;14201;43.188;24.160;2022-07-29T07:20:51;99696.84;;;28.64;60.00
26531;BME280;14201;43.188;24.160;2022-07-29T07:23:16;99697.81;;;28.90;58.96
26531;BME280;14201;43.188;24.160;2022-07-29T07:25:42;99695.59;;;29.04;58.38
26531;BME280;14201;43.188;24.160;2022-07-29T07:28:08;99694.84;;;29.28;58.12
26531;BME280;14201;43.188;24.160;2022-07-29T07:30:34;99695.09;;;29.47;56.31
26531;BME280;14201;43.188;24.160;2022-07-29T07:33:00;99701.41;;;29.45;55.59
26531;BME280;14201;43.188;24.160;2022-07-29T07:35:26;99684.44;;;29.18;56.33
26531;BME280;14201;43.188;24.160;2022-07-29T07:37:54;99686.69;;;29.31;56.97
26531;BME280;14201;43.188;24.160;2022-07-29T07:40:20;99695.63;;;29.56;57.45
26531;BME280;14201;43.188;24.160;2022-07-29T07:42:45;99695.31;;;29.65;54.84
26531;BME280;14201;43.188;24.160;2022-07-29T07:45:12;99696.56;;;29.82;55.86
26531;BME280;14201;43.188;24.160;2022-07-29T07:47:38;99695.66;;;30.07;55.66
26531;BME280;14201;43.188;24.160;2022-07-29T07:50:04;99699.97;;;30.36;54.50
26531;BME280;14201;43.188;24.160;2022-07-29T07:52:30;99695.22;;;30.66;53.27
26531;BME280;14201;43.188;24.160;2022-07-29T07:54:56;99695.16;;;30.91;51.99
26531;BME280;14201;43.188;24.160;2022-07-29T07:57:21;99705.66;;;31.40;52.23
26531;BME280;14201;43.188;24.160;2022-07-29T07:59:47;99699.59;;;31.77;49.92
26531;BME280;14201;43.188;24.160;2022-07-29T08:02:12;99700.59;;;31.75;48.88
26531;BME280;14201;43.188;24.160;2022-07-29T08:04:38;99695.03;;;31.59;50.36
26531;BME280;14201;43.188;24.160;2022-07-29T08:07:06;99692.84;;;31.67;49.59
26531;BME280;14201;43.188;24.160;2022-07-29T08:09:33;99698.00;;;31.53;50.25
26531;BME280;14201;43.188;24.160;2022-07-29T08:11:59;99689.63;;;31.59;50.55
26531;BME280;14201;43.188;24.160;2022-07-29T08:14:28;99691.41;;;32.01;50.22
26531;BME280;14201;43.188;24.160;2022-07-29T08:16:54;99689.22;;;31.89;47.91
26531;BME280;14201;43.188;24.160;2022-07-29T08:19:19;99688.63;;;31.82;49.00
26531;BME280;14201;43.188;24.160;2022-07-29T08:21:45;99690.00;;;31.91;48.90
26531;BME280;14201;43.188;24.160;2022-07-29T08:24:11;99685.88;;;32.23;48.27
26531;BME280;14201;43.188;24.160;2022-07-29T08:26:55;99683.25;;;32.61;48.05
26531;BME280;14201;43.188;24.160;2022-07-29T08:29:21;99681.31;;;32.82;47.49
26531;BME280;14201;43.188;24.160;2022-07-29T08:31:46;99682.06;;;33.40;46.46
26531;BME280;14201;43.188;24.160;2022-07-29T08:34:12;99684.03;;;33.88;44.60
26531;BME280;14201;43.188;24.160;2022-07-29T08:36:38;99684.72;;;34.09;43.79
26531;BME280;14201;43.188;24.160;2022-07-29T08:39:04;99681.91;;;33.60;44.88
26531;BME280;14201;43.188;24.160;2022-07-29T08:41:30;99676.13;;;33.85;43.21
26531;BME280;14201;43.188;24.160;2022-07-29T08:43:56;99672.22;;;33.91;43.00
26531;BME280;14201;43.188;24.160;2022-07-29T08:46:23;99672.38;;;33.88;42.16
26531;BME280;14201;43.188;24.160;2022-07-29T08:48:49;99669.59;;;33.37;43.78
26531;BME280;14201;43.188;24.160;2022-07-29T08:51:17;99670.16;;;33.44;44.00
26531;BME280;14201;43.188;24.160;2022-07-29T08:53:45;99664.63;;;33.64;42.37
26531;BME280;14201;43.188;24.160;2022-07-29T08:56:13;99672.06;;;33.77;42.26
26531;BME280;14201;43.188;24.160;2022-07-29T08:58:40;99669.44;;;34.26;41.50
26531;BME280;14201;43.188;24.160;2022-07-29T09:01:07;99660.84;;;34.67;41.10
26531;BME280;14201;43.188;24.160;2022-07-29T09:03:38;99659.50;;;35.06;40.73
26531;BME280;14201;43.188;24.160;2022-07-29T09:06:05;99657.16;;;35.60;39.23
26531;BME280;14201;43.188;24.160;2022-07-29T09:08:32;99659.66;;;35.49;38.96
26531;BME280;14201;43.188;24.160;2022-07-29T09:10:58;99660.13;;;35.72;38.81
26531;BME280;14201;43.188;24.160;2022-07-29T09:13:25;99653.22;;;35.36;37.95
26531;BME280;14201;43.188;24.160;2022-07-29T09:15:50;99651.00;;;35.12;38.35
26531;BME280;14201;43.188;24.160;2022-07-29T09:18:35;99652.44;;;35.19;39.57
26531;BME280;14201;43.188;24.160;2022-07-29T09:21:01;99653.09;;;35.53;39.49
26531;BME280;14201;43.188;24.160;2022-07-29T09:26:30;99655.41;;;36.33;36.16
26531;BME280;14201;43.188;24.160;2022-07-29T09:28:56;99651.81;;;36.32;36.71
26531;BME280;14201;43.188;24.160;2022-07-29T09:31:35;99654.00;;;36.54;35.70
26531;BME280;14201;43.188;24.160;2022-07-29T09:34:00;99647.91;;;36.65;35.61
26531;BME280;14201;43.188;24.160;2022-07-29T09:36:26;99649.22;;;35.57;35.91
26531;BME280;14201;43.188;24.160;2022-07-29T09:38:59;99641.78;;;34.37;38.29
26531;BME280;14201;43.188;24.160;2022-07-29T09:41:27;99641.03;;;34.82;38.24
26531;BME280;14201;43.188;24.160;2022-07-29T09:43:56;99637.75;;;35.38;37.95
26531;BME280;14201;43.188;24.160;2022-07-29T09:46:23;99646.75;;;35.68;35.88
26531;BME280;14201;43.188;24.160;2022-07-29T09:49:11;99642.91;;;36.01;36.72
26531;BME280;14201;43.188;24.160;2022-07-29T09:51:38;99648.31;;;36.16;35.76
26531;BME280;14201;43.188;24.160;2022-07-29T09:54:26;99648.75;;;35.65;35.65
26531;BME280;14201;43.188;24.160;2022-07-29T09:56:52;99640.91;;;35.60;36.59
26531;BME280;14201;43.188;24.160;2022-07-29T09:59:18;99634.19;;;35.82;36.23
26531;BME280;14201;43.188;24.160;2022-07-29T10:01:46;99630.19;;;36.02;36.89
26531;BME280;14201;43.188;24.160;2022-07-29T10:04:12;99629.22;;;36.46;35.54
26531;BME280;14201;43.188;24.160;2022-07-29T10:06:58;99627.34;;;36.61;35.48
26531;BME280;14201;43.188;24.160;2022-07-29T10:09:25;99625.00;;;36.96;35.32
26531;BME280;14201;43.188;24.160;2022-07-29T10:12:11;99623.06;;;37.38;33.60
26531;BME280;14201;43.188;24.160;2022-07-29T10:14:41;99614.28;;;37.08;34.21
26531;BME280;14201;43.188;24.160;2022-07-29T10:17:09;99619.13;;;35.62;36.20
26531;BME280;14201;43.188;24.160;2022-07-29T10:19:36;99614.16;;;36.28;36.06
26531;BME280;14201;43.188;24.160;2022-07-29T10:22:06;99613.31;;;36.81;35.46
26531;BME280;14201;43.188;24.160;2022-07-29T10:24:34;99610.66;;;36.94;35.93
26531;BME280;14201;43.188;24.160;2022-07-29T10:27:02;99609.94;;;37.05;34.65
26531;BME280;14201;43.188;24.160;2022-07-29T10:29:29;99617.63;;;37.51;33.99
26531;BME280;14201;43.188;24.160;2022-07-29T10:43:31;99587.63;;;37.40;33.77
26531;BME280;14201;43.188;24.160;2022-07-29T10:46:02;99576.44;;;37.44;33.88
26531;BME280;14201;43.188;24.160;2022-07-29T10:48:28;99577.41;;;37.82;32.55
26531;BME280;14201;43.188;24.160;2022-07-29T10:51:02;99574.13;;;35.88;35.73
26531;BME280;14201;43.188;24.160;2022-07-29T10:53:50;99573.09;;;35.91;36.58
26531;BME280;14201;43.188;24.160;2022-07-29T10:56:43;99568.03;;;35.99;35.38
26531;BME280;14201;43.188;24.160;2022-07-29T11:01:50;99546.69;;;36.49;34.77
26531;BME280;14201;43.188;24.160;2022-07-29T11:07:11;99552.19;;;36.89;34.60
26531;BME280;14201;43.188;24.160;2022-07-29T11:09:38;99546.75;;;36.61;34.78
26531;BME280;14201;43.188;24.160;2022-07-29T11:15:03;99543.91;;;37.43;32.60
26531;BME280;14201;43.188;24.160;2022-07-29T11:20:37;99533.38;;;37.26;33.47
26531;BME280;14201;43.188;24.160;2022-07-29T11:23:28;99538.59;;;37.54;34.07
26531;BME280;14201;43.188;24.160;2022-07-29T11:28:51;99529.41;;;37.94;32.41
26531;BME280;14201;43.188;24.160;2022-07-29T11:31:43;99531.97;;;37.33;32.72
26531;BME280;14201;43.188;24.160;2022-07-29T11:34:24;99521.97;;;37.46;32.70
26531;BME280;14201;43.188;24.160;2022-07-29T11:45:12;99502.16;;;38.44;31.75
26531;BME280;14201;43.188;24.160;2022-07-29T11:47:51;99505.53;;;38.83;32.19
26531;BME280;14201;43.188;24.160;2022-07-29T11:52:56;99498.34;;;38.70;31.21
26531;BME280;14201;43.188;24.160;2022-07-29T11:55:23;99496.66;;;38.92;31.82
26531;BME280;14201;43.188;24.160;2022-07-29T11:57:58;99493.41;;;38.87;32.34
26531;BME280;14201;43.188;24.160;2022-07-29T12:00:30;99495.28;;;39.33;31.93
26531;BME280;14201;43.188;24.160;2022-07-29T12:02:58;99480.91;;;39.65;31.80
26531;BME280;14201;43.188;24.160;2022-07-29T12:05:32;99497.19;;;38.00;30.91
26531;BME280;14201;43.188;24.160;2022-07-29T12:08:06;99495.13;;;37.29;33.40
26531;BME280;14201;43.188;24.160;2022-07-29T12:10:32;99487.75;;;36.65;33.88
26531;BME280;14201;43.188;24.160;2022-07-29T12:12:58;99477.84;;;36.37;33.04
26531;BME280;14201;43.188;24.160;2022-07-29T12:15:24;99470.28;;;36.42;33.89
26531;BME280;14201;43.188;24.160;2022-07-29T12:17:51;99464.28;;;36.37;33.13
26531;BME280;14201;43.188;24.160;2022-07-29T12:20:28;99464.75;;;36.96;32.75
26531;BME280;14201;43.188;24.160;2022-07-29T12:22:55;99474.78;;;37.21;32.67
26531;BME280;14201;43.188;24.160;2022-07-29T12:25:23;99464.44;;;37.52;31.64
26531;BME280;14201;43.188;24.160;2022-07-29T12:28:04;99464.22;;;37.04;31.98
26531;BME280;14201;43.188;24.160;2022-07-29T12:30:36;99456.13;;;36.37;32.49
26531;BME280;14201;43.188;24.160;2022-07-29T12:33:26;99452.00;;;36.71;32.26
26531;BME280;14201;43.188;24.160;2022-07-29T12:36:13;99449.44;;;36.82;34.78
26531;BME280;14201;43.188;24.160;2022-07-29T12:38:40;99446.31;;;37.14;32.05
26531;BME280;14201;43.188;24.160;2022-07-29T12:41:06;99444.63;;;36.73;32.66
26531;BME280;14201;43.188;24.160;2022-07-29T12:43:32;99438.47;;;36.44;35.07
26531;BME280;14201;43.188;24.160;2022-07-29T12:46:12;99442.38;;;36.93;34.66
26531;BME280;14201;43.188;24.160;2022-07-29T12:48:41;99439.53;;;36.94;33.63
26531;BME280;14201;43.188;24.160;2022-07-29T12:51:07;99432.38;;;36.40;33.94
26531;BME280;14201;43.188;24.160;2022-07-29T12:53:35;99438.31;;;36.33;32.92
26531;BME280;14201;43.188;24.160;2022-07-29T12:56:04;99434.84;;;36.18;33.58
26531;BME280;14201;43.188;24.160;2022-07-29T12:58:41;99421.03;;;36.61;31.95
26531;BME280;14201;43.188;24.160;2022-07-29T13:01:17;99420.44;;;36.96;32.37
26531;BME280;14201;43.188;24.160;2022-07-29T13:03:55;99413.09;;;37.48;31.18
26531;BME280;14201;43.188;24.160;2022-07-29T13:06:43;99419.84;;;37.92;31.11
26531;BME280;14201;43.188;24.160;2022-07-29T13:09:15;99419.78;;;38.05;30.88
26531;BME280;14201;43.188;24.160;2022-07-29T13:14:09;99407.28;;;37.78;30.98
26531;BME280;14201;43.188;24.160;2022-07-29T13:16:36;99410.44;;;37.35;31.29
26531;BME280;14201;43.188;24.160;2022-07-29T13:19:10;99408.78;;;37.07;31.68
26531;BME280;14201;43.188;24.160;2022-07-29T13:21:37;99405.88;;;36.84;31.52
26531;BME280;14201;43.188;24.160;2022-07-29T13:24:05;99396.97;;;37.20;32.11
26531;BME280;14201;43.188;24.160;2022-07-29T13:26:31;99396.19;;;37.05;31.11
26531;BME280;14201;43.188;24.160;2022-07-29T13:28:58;99395.44;;;37.16;30.84
26531;BME280;14201;43.188;24.160;2022-07-29T13:31:23;99395.13;;;36.82;31.13
26531;BME280;14201;43.188;24.160;2022-07-29T13:33:49;99391.66;;;36.80;31.22
26531;BME280;14201;43.188;24.160;2022-07-29T13:36:15;99387.84;;;36.83;30.44
26531;BME280;14201;43.188;24.160;2022-07-29T13:38:41;99391.53;;;37.20;30.25
26531;BME280;14201;43.188;24.160;2022-07-29T13:41:07;99384.72;;;37.15;30.55
26531;BME280;14201;43.188;24.160;2022-07-29T13:43:33;99386.88;;;37.22;30.11
26531;BME280;14201;43.188;24.160;2022-07-29T13:45:58;99383.91;;;37.26;30.09
26531;BME280;14201;43.188;24.160;2022-07-29T13:48:24;99376.97;;;37.21;30.40
26531;BME280;14201;43.188;24.160;2022-07-29T13:50:50;99378.59;;;36.98;31.48
26531;BME280;14201;43.188;24.160;2022-07-29T13:53:16;99374.31;;;36.30;32.14
26531;BME280;14201;43.188;24.160;2022-07-29T13:55:42;99373.88;;;36.09;31.93